sensor_id;sensor_type;location;lat;lon;timestamp;P1;durP1;ratioP1;P2;durP2;ratioP2
37067;SDS011;22982;42.848;25.468;2023-07-13T00:02:42;15.48;;;12.65;;
37067;SDS011;22982;42.848;25.468;2023-07-13T00:07:44;15.45;;;12.38;;
37067;SDS011;22982;42.848;25.468;2023-07-13T00:13:05;18.40;;;14.43;;
37067;SDS011;22982;42.848;25.468;2023-07-13T00:18:07;15.73;;;13.45;;
37067;SDS011;22982;42.848;25.468;2023-07-13T00:23:10;17.70;;;13.75;;
37067;SDS011;22982;42.848;25.468;2023-07-13T00:28:12;19.90;;;14.57;;
37067;SDS011;22982;42.848;25.468;2023-07-13T00:33:15;19.73;;;14.43;;
37067;SDS011;22982;42.848;25.468;2023-07-13T00:38:19;19.48;;;14.70;;
37067;SDS011;22982;42.848;25.468;2023-07-13T00:43:23;18.98;;;14.23;;
37067;SDS011;22982;42.848;25.468;2023-07-13T00:48:29;19.67;;;14.43;;
37067;SDS011;22982;42.848;25.468;2023-07-13T00:53:33;16.77;;;13.95;;
37067;SDS011;22982;42.848;25.468;2023-07-13T00:58:36;17.77;;;13.90;;
37067;SDS011;22982;42.848;25.468;2023-07-13T01:03:39;19.08;;;15.02;;
37067;SDS011;22982;42.848;25.468;2023-07-13T01:08:42;17.23;;;14.65;;
37067;SDS011;22982;42.848;25.468;2023-07-13T01:13:45;19.13;;;14.02;;
37067;SDS011;22982;42.848;25.468;2023-07-13T01:18:48;18.95;;;14.75;;
37067;SDS011;22982;42.848;25.468;2023-07-13T01:23:52;22.70;;;14.23;;
37067;SDS011;22982;42.848;25.468;2023-07-13T01:28:56;19.92;;;15.10;;
37067;SDS011;22982;42.848;25.468;2023-07-13T01:33:58;23.00;;;13.77;;
37067;SDS011;22982;42.848;25.468;2023-07-13T01:39:02;18.98;;;14.25;;
37067;SDS011;22982;42.848;25.468;2023-07-13T01:44:05;17.50;;;13.25;;
37067;SDS011;22982;42.848;25.468;2023-07-13T01:49:08;19.25;;;13.82;;
37067;SDS011;22982;42.848;25.468;2023-07-13T01:54:10;17.45;;;14.65;;
37067;SDS011;22982;42.848;25.468;2023-07-13T01:59:13;20.48;;;14.27;;
37067;SDS011;22982;42.848;25.468;2023-07-13T02:04:15;22.25;;;14.93;;
37067;SDS011;22982;42.848;25.468;2023-07-13T02:09:17;17.70;;;13.88;;
37067;SDS011;22982;42.848;25.468;2023-07-13T02:14:20;16.83;;;13.93;;
37067;SDS011;22982;42.848;25.468;2023-07-13T02:19:22;17.08;;;13.85;;
37067;SDS011;22982;42.848;25.468;2023-07-13T02:24:25;19.08;;;14.30;;
37067;SDS011;22982;42.848;25.468;2023-07-13T02:29:27;18.05;;;13.30;;
37067;SDS011;22982;42.848;25.468;2023-07-13T02:34:30;18.00;;;13.70;;
37067;SDS011;22982;42.848;25.468;2023-07-13T02:39:34;21.27;;;13.70;;
37067;SDS011;22982;42.848;25.468;2023-07-13T02:44:37;19.35;;;12.82;;
37067;SDS011;22982;42.848;25.468;2023-07-13T02:49:39;16.23;;;13.20;;
37067;SDS011;22982;42.848;25.468;2023-07-13T02:54:42;17.77;;;14.20;;
37067;SDS011;22982;42.848;25.468;2023-07-13T02:59:44;17.45;;;13.50;;
37067;SDS011;22982;42.848;25.468;2023-07-13T03:04:46;16.75;;;13.02;;
37067;SDS011;22982;42.848;25.468;2023-07-13T03:09:49;18.58;;;13.43;;
37067;SDS011;22982;42.848;25.468;2023-07-13T03:14:56;16.20;;;12.45;;
37067;SDS011;22982;42.848;25.468;2023-07-13T03:20:00;14.80;;;11.93;;
37067;SDS011;22982;42.848;25.468;2023-07-13T03:25:03;15.70;;;12.57;;
37067;SDS011;22982;42.848;25.468;2023-07-13T03:30:07;18.52;;;13.68;;
37067;SDS011;22982;42.848;25.468;2023-07-13T03:35:10;18.50;;;12.52;;
37067;SDS011;22982;42.848;25.468;2023-07-13T03:40:12;16.40;;;12.88;;
37067;SDS011;22982;42.848;25.468;2023-07-13T03:45:18;20.25;;;13.57;;
37067;SDS011;22982;42.848;25.468;2023-07-13T03:50:22;16.95;;;12.32;;
37067;SDS011;22982;42.848;25.468;2023-07-13T03:55:24;14.38;;;12.45;;
37067;SDS011;22982;42.848;25.468;2023-07-13T04:00:28;17.10;;;12.23;;
37067;SDS011;22982;42.848;25.468;2023-07-13T04:05:31;18.85;;;11.88;;
37067;SDS011;22982;42.848;25.468;2023-07-13T04:10:34;15.85;;;12.18;;
37067;SDS011;22982;42.848;25.468;2023-07-13T04:15:37;14.35;;;11.38;;
37067;SDS011;22982;42.848;25.468;2023-07-13T04:20:42;15.05;;;11.60;;
37067;SDS011;22982;42.848;25.468;2023-07-13T04:25:44;17.35;;;11.73;;
37067;SDS011;22982;42.848;25.468;2023-07-13T04:30:49;14.00;;;10.88;;
37067;SDS011;22982;42.848;25.468;2023-07-13T04:35:52;17.88;;;11.23;;
37067;SDS011;22982;42.848;25.468;2023-07-13T04:40:59;17.83;;;10.50;;
37067;SDS011;22982;42.848;25.468;2023-07-13T04:46:10;16.75;;;11.23;;
37067;SDS011;22982;42.848;25.468;2023-07-13T04:51:14;13.43;;;9.63;;
37067;SDS011;22982;42.848;25.468;2023-07-13T04:56:17;10.48;;;7.75;;
37067;SDS011;22982;42.848;25.468;2023-07-13T05:01:21;10.48;;;7.15;;
37067;SDS011;22982;42.848;25.468;2023-07-13T05:06:24;10.60;;;7.28;;
37067;SDS011;22982;42.848;25.468;2023-07-13T05:11:26;10.60;;;8.35;;
37067;SDS011;22982;42.848;25.468;2023-07-13T05:16:29;9.18;;;6.88;;
37067;SDS011;22982;42.848;25.468;2023-07-13T05:21:33;11.85;;;7.00;;
37067;SDS011;22982;42.848;25.468;2023-07-13T05:26:35;7.43;;;6.55;;
37067;SDS011;22982;42.848;25.468;2023-07-13T05:31:38;10.70;;;6.75;;
37067;SDS011;22982;42.848;25.468;2023-07-13T05:36:42;10.20;;;6.75;;
37067;SDS011;22982;42.848;25.468;2023-07-13T05:41:44;9.25;;;5.93;;
37067;SDS011;22982;42.848;25.468;2023-07-13T05:46:47;11.70;;;6.53;;
37067;SDS011;22982;42.848;25.468;2023-07-13T05:51:49;9.07;;;5.95;;
37067;SDS011;22982;42.848;25.468;2023-07-13T05:56:52;10.07;;;6.10;;
37067;SDS011;22982;42.848;25.468;2023-07-13T06:01:54;8.55;;;6.32;;
37067;SDS011;22982;42.848;25.468;2023-07-13T06:06:57;9.15;;;6.32;;
37067;SDS011;22982;42.848;25.468;2023-07-13T06:11:59;8.00;;;5.53;;
37067;SDS011;22982;42.848;25.468;2023-07-13T06:17:02;8.43;;;5.85;;
37067;SDS011;22982;42.848;25.468;2023-07-13T06:22:04;7.40;;;5.47;;
37067;SDS011;22982;42.848;25.468;2023-07-13T06:27:07;9.60;;;5.40;;
37067;SDS011;22982;42.848;25.468;2023-07-13T06:32:09;7.70;;;6.25;;
37067;SDS011;22982;42.848;25.468;2023-07-13T06:37:12;7.88;;;5.53;;
37067;SDS011;22982;42.848;25.468;2023-07-13T06:42:15;11.05;;;5.65;;
37067;SDS011;22982;42.848;25.468;2023-07-13T06:47:19;10.30;;;6.15;;
37067;SDS011;22982;42.848;25.468;2023-07-13T06:52:21;8.50;;;5.75;;
37067;SDS011;22982;42.848;25.468;2023-07-13T06:57:23;7.63;;;5.78;;
37067;SDS011;22982;42.848;25.468;2023-07-13T07:02:26;8.95;;;6.18;;
37067;SDS011;22982;42.848;25.468;2023-07-13T07:07:28;7.05;;;5.88;;
37067;SDS011;22982;42.848;25.468;2023-07-13T07:12:30;7.93;;;5.00;;
37067;SDS011;22982;42.848;25.468;2023-07-13T07:17:33;11.77;;;5.03;;
37067;SDS011;22982;42.848;25.468;2023-07-13T07:22:35;7.00;;;5.00;;
37067;SDS011;22982;42.848;25.468;2023-07-13T07:27:38;6.90;;;5.00;;
37067;SDS011;22982;42.848;25.468;2023-07-13T07:32:43;7.65;;;4.90;;
37067;SDS011;22982;42.848;25.468;2023-07-13T07:37:48;6.68;;;4.28;;
37067;SDS011;22982;42.848;25.468;2023-07-13T07:42:52;6.75;;;4.05;;
37067;SDS011;22982;42.848;25.468;2023-07-13T07:47:55;8.85;;;4.65;;
37067;SDS011;22982;42.848;25.468;2023-07-13T07:53:00;7.50;;;4.40;;
37067;SDS011;22982;42.848;25.468;2023-07-13T07:58:04;5.82;;;3.85;;
37067;SDS011;22982;42.848;25.468;2023-07-13T08:03:27;8.43;;;4.13;;
37067;SDS011;22982;42.848;25.468;2023-07-13T08:08:50;7.78;;;3.90;;
37067;SDS011;22982;42.848;25.468;2023-07-13T08:13:52;6.20;;;4.15;;
37067;SDS011;22982;42.848;25.468;2023-07-13T08:18:56;7.90;;;4.20;;
37067;SDS011;22982;42.848;25.468;2023-07-13T08:23:59;7.15;;;4.40;;
37067;SDS011;22982;42.848;25.468;2023-07-13T08:29:01;6.65;;;4.00;;
37067;SDS011;22982;42.848;25.468;2023-07-13T08:34:04;6.68;;;4.32;;
37067;SDS011;22982;42.848;25.468;2023-07-13T08:39:06;6.22;;;4.30;;
37067;SDS011;22982;42.848;25.468;2023-07-13T08:49:49;8.50;;;4.80;;
37067;SDS011;22982;42.848;25.468;2023-07-13T08:54:52;6.57;;;4.50;;
37067;SDS011;22982;42.848;25.468;2023-07-13T08:59:57;9.48;;;4.80;;
37067;SDS011;22982;42.848;25.468;2023-07-13T09:05:04;5.55;;;4.78;;
37067;SDS011;22982;42.848;25.468;2023-07-13T09:15:50;6.10;;;4.32;;
37067;SDS011;22982;42.848;25.468;2023-07-13T09:36:47;9.18;;;4.95;;
37067;SDS011;22982;42.848;25.468;2023-07-13T09:47:17;9.73;;;5.10;;
37067;SDS011;22982;42.848;25.468;2023-07-13T09:52:21;7.77;;;5.40;;
37067;SDS011;22982;42.848;25.468;2023-07-13T09:57:25;10.93;;;6.15;;
37067;SDS011;22982;42.848;25.468;2023-07-13T10:02:46;11.55;;;6.88;;
37067;SDS011;22982;42.848;25.468;2023-07-13T10:08:01;6.90;;;5.15;;
37067;SDS011;22982;42.848;25.468;2023-07-13T10:13:04;9.68;;;5.10;;
37067;SDS011;22982;42.848;25.468;2023-07-13T10:18:07;7.55;;;5.40;;
37067;SDS011;22982;42.848;25.468;2023-07-13T10:23:15;6.30;;;5.35;;
37067;SDS011;22982;42.848;25.468;2023-07-13T10:28:35;8.15;;;5.28;;
37067;SDS011;22982;42.848;25.468;2023-07-13T10:33:39;8.95;;;5.65;;
37067;SDS011;22982;42.848;25.468;2023-07-13T10:38:41;8.82;;;5.25;;
37067;SDS011;22982;42.848;25.468;2023-07-13T10:43:52;9.25;;;5.10;;
37067;SDS011;22982;42.848;25.468;2023-07-13T10:48:57;7.85;;;6.43;;
37067;SDS011;22982;42.848;25.468;2023-07-13T10:54:19;9.48;;;6.43;;
37067;SDS011;22982;42.848;25.468;2023-07-13T10:59:27;8.07;;;5.30;;
37067;SDS011;22982;42.848;25.468;2023-07-13T11:04:50;10.68;;;6.03;;
37067;SDS011;22982;42.848;25.468;2023-07-13T11:09:59;8.07;;;6.07;;
37067;SDS011;22982;42.848;25.468;2023-07-13T11:15:09;10.00;;;6.03;;
37067;SDS011;22982;42.848;25.468;2023-07-13T11:35:30;9.25;;;6.30;;
37067;SDS011;22982;42.848;25.468;2023-07-13T11:40:34;8.02;;;6.22;;
37067;SDS011;22982;42.848;25.468;2023-07-13T11:45:39;11.10;;;6.13;;
37067;SDS011;22982;42.848;25.468;2023-07-13T11:50:56;8.85;;;5.90;;
37067;SDS011;22982;42.848;25.468;2023-07-13T11:56:01;10.27;;;6.43;;
37067;SDS011;22982;42.848;25.468;2023-07-13T12:01:09;7.15;;;6.18;;
37067;SDS011;22982;42.848;25.468;2023-07-13T12:06:31;10.30;;;5.95;;
37067;SDS011;22982;42.848;25.468;2023-07-13T12:11:39;7.78;;;6.07;;
37067;SDS011;22982;42.848;25.468;2023-07-13T12:16:44;9.50;;;6.45;;
37067;SDS011;22982;42.848;25.468;2023-07-13T12:21:48;8.20;;;6.40;;
37067;SDS011;22982;42.848;25.468;2023-07-13T12:26:58;10.40;;;5.82;;
37067;SDS011;22982;42.848;25.468;2023-07-13T12:32:07;7.43;;;5.80;;
37067;SDS011;22982;42.848;25.468;2023-07-13T12:37:11;9.60;;;5.90;;
37067;SDS011;22982;42.848;25.468;2023-07-13T12:42:28;9.30;;;6.07;;
37067;SDS011;22982;42.848;25.468;2023-07-13T12:47:41;6.97;;;5.47;;
37067;SDS011;22982;42.848;25.468;2023-07-13T12:52:44;8.80;;;5.85;;
37067;SDS011;22982;42.848;25.468;2023-07-13T12:57:56;9.85;;;5.82;;
37067;SDS011;22982;42.848;25.468;2023-07-13T13:08:27;9.85;;;6.40;;
37067;SDS011;22982;42.848;25.468;2023-07-13T13:13:30;8.35;;;5.95;;
37067;SDS011;22982;42.848;25.468;2023-07-13T13:18:32;6.95;;;6.10;;
37067;SDS011;22982;42.848;25.468;2023-07-13T13:23:35;9.40;;;6.95;;
37067;SDS011;22982;42.848;25.468;2023-07-13T13:28:37;10.48;;;6.60;;
37067;SDS011;22982;42.848;25.468;2023-07-13T13:33:41;11.45;;;7.93;;
37067;SDS011;22982;42.848;25.468;2023-07-13T13:38:45;12.30;;;6.72;;
37067;SDS011;22982;42.848;25.468;2023-07-13T13:43:50;11.32;;;6.50;;
37067;SDS011;22982;42.848;25.468;2023-07-13T13:48:52;13.35;;;6.25;;
37067;SDS011;22982;42.848;25.468;2023-07-13T13:53:56;11.27;;;6.00;;
37067;SDS011;22982;42.848;25.468;2023-07-13T13:58:59;9.23;;;6.85;;
37067;SDS011;22982;42.848;25.468;2023-07-13T14:20:10;11.38;;;6.70;;
37067;SDS011;22982;42.848;25.468;2023-07-13T14:25:15;10.75;;;7.10;;
37067;SDS011;22982;42.848;25.468;2023-07-13T14:30:19;13.05;;;7.65;;
37067;SDS011;22982;42.848;25.468;2023-07-13T14:35:24;10.48;;;7.45;;
37067;SDS011;22982;42.848;25.468;2023-07-13T14:40:28;14.57;;;11.70;;
37067;SDS011;22982;42.848;25.468;2023-07-13T14:45:32;14.90;;;9.52;;
37067;SDS011;22982;42.848;25.468;2023-07-13T14:50:36;10.52;;;9.13;;
37067;SDS011;22982;42.848;25.468;2023-07-13T14:55:39;11.95;;;7.72;;
37067;SDS011;22982;42.848;25.468;2023-07-13T15:00:44;12.60;;;6.90;;
37067;SDS011;22982;42.848;25.468;2023-07-13T15:05:48;12.18;;;7.63;;
37067;SDS011;22982;42.848;25.468;2023-07-13T15:10:52;12.88;;;8.35;;
37067;SDS011;22982;42.848;25.468;2023-07-13T15:31:40;9.88;;;7.82;;
37067;SDS011;22982;42.848;25.468;2023-07-13T15:36:43;12.38;;;7.60;;
37067;SDS011;22982;42.848;25.468;2023-07-13T15:41:46;14.32;;;7.75;;
37067;SDS011;22982;42.848;25.468;2023-07-13T15:46:49;11.38;;;6.93;;
37067;SDS011;22982;42.848;25.468;2023-07-13T15:51:52;8.68;;;6.75;;
37067;SDS011;22982;42.848;25.468;2023-07-13T15:56:55;18.98;;;7.25;;
37067;SDS011;22982;42.848;25.468;2023-07-13T16:01:58;20.23;;;7.70;;
37067;SDS011;22982;42.848;25.468;2023-07-13T16:07:00;11.65;;;7.22;;
37067;SDS011;22982;42.848;25.468;2023-07-13T16:12:08;11.38;;;8.52;;
37067;SDS011;22982;42.848;25.468;2023-07-13T16:17:14;11.00;;;8.15;;
37067;SDS011;22982;42.848;25.468;2023-07-13T16:22:18;15.73;;;7.95;;
37067;SDS011;22982;42.848;25.468;2023-07-13T16:27:22;9.00;;;7.70;;
37067;SDS011;22982;42.848;25.468;2023-07-13T16:32:26;14.02;;;7.88;;
37067;SDS011;22982;42.848;25.468;2023-07-13T16:37:30;14.10;;;8.27;;
37067;SDS011;22982;42.848;25.468;2023-07-13T16:42:33;11.82;;;7.88;;
37067;SDS011;22982;42.848;25.468;2023-07-13T16:47:35;12.48;;;8.90;;
37067;SDS011;22982;42.848;25.468;2023-07-13T16:52:40;11.57;;;8.15;;
37067;SDS011;22982;42.848;25.468;2023-07-13T16:57:43;12.40;;;8.32;;
37067;SDS011;22982;42.848;25.468;2023-07-13T17:02:47;12.57;;;8.30;;
37067;SDS011;22982;42.848;25.468;2023-07-13T17:07:49;14.25;;;8.45;;
37067;SDS011;22982;42.848;25.468;2023-07-13T17:12:52;13.50;;;8.80;;
37067;SDS011;22982;42.848;25.468;2023-07-13T17:17:56;11.93;;;8.95;;
37067;SDS011;22982;42.848;25.468;2023-07-13T17:23:14;19.67;;;9.10;;
37067;SDS011;22982;42.848;25.468;2023-07-13T17:28:18;15.80;;;9.80;;
37067;SDS011;22982;42.848;25.468;2023-07-13T17:38:37;17.42;;;9.93;;
37067;SDS011;22982;42.848;25.468;2023-07-13T17:43:46;12.00;;;9.82;;
37067;SDS011;22982;42.848;25.468;2023-07-13T17:48:58;20.55;;;15.05;;
37067;SDS011;22982;42.848;25.468;2023-07-13T17:54:01;16.40;;;11.48;;
37067;SDS011;22982;42.848;25.468;2023-07-13T17:59:04;13.90;;;10.45;;
37067;SDS011;22982;42.848;25.468;2023-07-13T18:04:11;12.57;;;11.02;;
37067;SDS011;22982;42.848;25.468;2023-07-13T18:09:17;19.50;;;11.38;;
37067;SDS011;22982;42.848;25.468;2023-07-13T18:14:23;13.52;;;10.70;;
37067;SDS011;22982;42.848;25.468;2023-07-13T18:19:28;15.43;;;11.40;;
37067;SDS011;22982;42.848;25.468;2023-07-13T18:24:34;15.05;;;11.05;;
37067;SDS011;22982;42.848;25.468;2023-07-13T18:29:37;15.52;;;10.90;;
37067;SDS011;22982;42.848;25.468;2023-07-13T18:34:39;16.98;;;10.70;;
37067;SDS011;22982;42.848;25.468;2023-07-13T18:39:47;14.10;;;11.45;;
37067;SDS011;22982;42.848;25.468;2023-07-13T18:44:51;12.73;;;11.00;;
37067;SDS011;22982;42.848;25.468;2023-07-13T18:49:53;22.23;;;12.63;;
37067;SDS011;22982;42.848;25.468;2023-07-13T18:54:58;18.70;;;11.20;;
37067;SDS011;22982;42.848;25.468;2023-07-13T19:00:00;18.20;;;13.82;;
37067;SDS011;22982;42.848;25.468;2023-07-13T19:05:12;15.02;;;11.30;;
37067;SDS011;22982;42.848;25.468;2023-07-13T19:10:17;14.40;;;11.43;;
37067;SDS011;22982;42.848;25.468;2023-07-13T19:15:27;14.40;;;12.77;;
37067;SDS011;22982;42.848;25.468;2023-07-13T19:20:32;17.02;;;11.38;;
37067;SDS011;22982;42.848;25.468;2023-07-13T19:25:34;17.35;;;12.18;;
37067;SDS011;22982;42.848;25.468;2023-07-13T19:30:38;18.60;;;12.55;;
37067;SDS011;22982;42.848;25.468;2023-07-13T19:35:40;15.30;;;11.95;;
37067;SDS011;22982;42.848;25.468;2023-07-13T19:40:44;16.23;;;12.20;;
37067;SDS011;22982;42.848;25.468;2023-07-13T19:45:50;15.77;;;12.00;;
37067;SDS011;22982;42.848;25.468;2023-07-13T19:50:55;16.73;;;12.60;;
37067;SDS011;22982;42.848;25.468;2023-07-13T19:56:00;16.35;;;12.20;;
37067;SDS011;22982;42.848;25.468;2023-07-13T20:01:08;16.95;;;12.55;;
37067;SDS011;22982;42.848;25.468;2023-07-13T20:06:30;20.05;;;11.93;;
37067;SDS011;22982;42.848;25.468;2023-07-13T20:11:34;16.90;;;11.70;;
37067;SDS011;22982;42.848;25.468;2023-07-13T20:16:37;14.52;;;11.73;;
37067;SDS011;22982;42.848;25.468;2023-07-13T20:21:39;19.10;;;12.68;;
37067;SDS011;22982;42.848;25.468;2023-07-13T20:26:42;16.52;;;12.75;;
37067;SDS011;22982;42.848;25.468;2023-07-13T20:31:46;16.67;;;11.60;;
37067;SDS011;22982;42.848;25.468;2023-07-13T20:36:50;17.50;;;12.20;;
37067;SDS011;22982;42.848;25.468;2023-07-13T20:41:56;16.10;;;12.35;;
37067;SDS011;22982;42.848;25.468;2023-07-13T20:46:58;17.45;;;12.07;;
37067;SDS011;22982;42.848;25.468;2023-07-13T20:52:08;14.05;;;11.60;;
37067;SDS011;22982;42.848;25.468;2023-07-13T20:57:16;14.65;;;12.07;;
37067;SDS011;22982;42.848;25.468;2023-07-13T21:07:25;16.90;;;11.82;;
37067;SDS011;22982;42.848;25.468;2023-07-13T21:12:27;16.02;;;12.23;;
37067;SDS011;22982;42.848;25.468;2023-07-13T21:17:30;15.98;;;12.40;;
37067;SDS011;22982;42.848;25.468;2023-07-13T21:22:35;18.83;;;12.82;;
37067;SDS011;22982;42.848;25.468;2023-07-13T21:27:39;12.88;;;11.50;;
37067;SDS011;22982;42.848;25.468;2023-07-13T21:32:41;15.32;;;11.77;;
37067;SDS011;22982;42.848;25.468;2023-07-13T21:37:45;19.48;;;12.13;;
37067;SDS011;22982;42.848;25.468;2023-07-13T21:42:48;16.05;;;12.30;;
37067;SDS011;22982;42.848;25.468;2023-07-13T21:47:52;13.95;;;12.55;;
37067;SDS011;22982;42.848;25.468;2023-07-13T21:52:55;20.42;;;12.50;;
37067;SDS011;22982;42.848;25.468;2023-07-13T21:57:58;17.17;;;12.68;;
37067;SDS011;22982;42.848;25.468;2023-07-13T22:03:00;14.68;;;12.25;;
37067;SDS011;22982;42.848;25.468;2023-07-13T22:08:04;17.48;;;13.48;;
37067;SDS011;22982;42.848;25.468;2023-07-13T22:13:12;17.67;;;12.45;;
37067;SDS011;22982;42.848;25.468;2023-07-13T22:18:16;19.67;;;12.77;;
37067;SDS011;22982;42.848;25.468;2023-07-13T22:23:40;16.40;;;13.38;;
37067;SDS011;22982;42.848;25.468;2023-07-13T22:28:43;19.13;;;13.75;;
37067;SDS011;22982;42.848;25.468;2023-07-13T22:33:46;22.08;;;13.18;;
37067;SDS011;22982;42.848;25.468;2023-07-13T22:38:49;19.33;;;13.73;;
37067;SDS011;22982;42.848;25.468;2023-07-13T22:43:51;16.02;;;12.50;;
37067;SDS011;22982;42.848;25.468;2023-07-13T22:49:01;18.02;;;13.43;;
37067;SDS011;22982;42.848;25.468;2023-07-13T22:54:19;17.42;;;13.05;;
37067;SDS011;22982;42.848;25.468;2023-07-13T22:59:22;17.42;;;12.52;;
37067;SDS011;22982;42.848;25.468;2023-07-13T23:04:30;15.80;;;11.88;;
37067;SDS011;22982;42.848;25.468;2023-07-13T23:09:35;17.75;;;11.98;;
37067;SDS011;22982;42.848;25.468;2023-07-13T23:14:42;16.17;;;11.57;;
37067;SDS011;22982;42.848;25.468;2023-07-13T23:19:44;18.85;;;12.27;;
37067;SDS011;22982;42.848;25.468;2023-07-13T23:24:48;16.90;;;11.57;;
37067;SDS011;22982;42.848;25.468;2023-07-13T23:29:50;13.68;;;11.18;;
37067;SDS011;22982;42.848;25.468;2023-07-13T23:34:54;13.35;;;10.52;;
37067;SDS011;22982;42.848;25.468;2023-07-13T23:39:56;21.80;;;12.20;;
37067;SDS011;22982;42.848;25.468;2023-07-13T23:44:58;20.20;;;10.73;;
37067;SDS011;22982;42.848;25.468;2023-07-13T23:50:04;14.93;;;11.80;;
37067;SDS011;22982;42.848;25.468;2023-07-13T23:55:13;14.50;;;11.68;;
